AirNav   Free Bose QuietComfort 20
 
 591 users online  

57FL Lake Keystone Seaplane Base
Odessa, Florida, USA

GOING TO ODESSA?


FAA INFORMATION EFFECTIVE 05 DECEMBER 2019

Location

FAA Identifier: 57FL
Lat/Long: 28-08-09.4000N 082-35-38.3100W
28-08.156667N 082-35.638500W
28.1359444,-82.5939750
(estimated)
Elevation: 42 ft. / 13 m (estimated)
From city: 3 miles SSW of ODESSA, FL
Time zone: UTC -5 (UTC -4 during Daylight Saving Time)
Zip code: 33556

Seaplane Base Operations

Seaplane Base use: Private use. Permission required prior to landing
Activation date: 09/2014
Control tower: no
ARTCC: MIAMI CENTER
FSS: SAINT PETERSBURG FLIGHT SERVICE STATION
Attendance: UNATNDD
Wind indicator: yes
Segmented circle: no

Seaplane Base Communications

WX ASOS at TPA (10 nm S): PHONE 813-873-7228
WX AWOS-3P at CLW (13 nm SW): 119.225 (727-449-2184)
WX ASOS at PIE (14 nm S): PHONE 727-531-3456
WX AWOS-3 at VDF (15 nm SE): 121.125 (813-630-0924)
WX AWOS-3 at TPF (15 nm SE): 118.925 (813-251-6824)

Nearby radio navigation aids

VOR radial/distance  VOR name  Freq  Var
PIEr024/14.5ST PETERSBURG VORTAC116.4005W
LALr285/32.0LAKELAND VORTAC116.0001E

 
NDB name  Hdg/Dist  Freq  Var  ID
COSME315/4.736805WTP - .--.
CAPOK040/10.336005WPI .--. ..

Seaplane Base Services

Runway Information

Runway 14W/32W

Dimensions: 2500 x 200 ft. / 762 x 61 m
Surface: water
RUNWAY 14W  RUNWAY 32W
Traffic pattern: leftleft

Seaplane Base Ownership and Management from official FAA records

Ownership: Privately-owned
Owner: KEYSTONE SEAPLANE, LLC
8615 VIVIAN BASS WAY
ODESSA, FL 33556
Phone (813) 597-8500
Manager: KEN LEONARD SR
10523 LAKE WILLIAMS
ODESSA, FL 33556
Phone 813-416-7744

Seaplane Base Operational Statistics

Aircraft based on the field: 1
Single engine airplanes: 1
    

Additional Remarks

FOR CD CTC TAMPA APCH AT 813-878-2528

Instrument Procedures

There are no published instrument procedures at 57FL.

Some nearby airports with instrument procedures:

KTPA - Tampa International Airport (10 nm S)
KCLW - Clearwater Air Park (13 nm SW)
KPIE - St Pete-Clearwater International Airport (14 nm S)
KVDF - Tampa Executive Airport (15 nm SE)
KTPF - Peter O Knight Airport (15 nm SE)
KMCF - MacDill Air Force Base (18 nm S)
 
Loc | Ops | Rwys | IFR | FBO | Links
Com | Nav | Svcs | Stats | Notes


 
Aerial photo
No photo
 
Airport distance calculator
Flying to Lake Keystone Seaplane Base? Find the distance to fly.

From to 57FL

Sunrise and sunset
Times for 06-Dec-2019
 Local
(UTC-5)
 Zulu
(UTC)
Morning civil twilight06:4411:44
Sunrise07:0912:09
Sunset17:3322:33
Evening civil twilight17:5922:59

Current date and time
Zulu (UTC)  06-Dec-2019 09:38:38
Local (UTC-5)  06-Dec-2019 04:38:38
 
METAR
KTPA 
11nm S 
060853Z 07004KT 10SM FEW320 12/07 A3017 RMK AO2 SLP216 T01170067 58006 $
KCLW 
13nm SW 
060915Z AUTO 00000KT 10SM CLR 10/06 A3017 RMK AO2
KPIE 
14nm S 
060853Z AUTO 06004KT 10SM CLR 14/08 A3016 RMK AO2 SLP213 T01390083 58007
KVDF 
15nm SE 
060915Z AUTO 00000KT 7SM CLR 05/05 A3018 RMK AO2
KTPF 
15nm SE 
060915Z AUTO 05005KT 10SM SCT110 11/09 A3017 RMK AO2
KMCF 
18nm S 
060856Z AUTO 07005KT 10SM CLR 09/07 A3016 RMK AO2 SLP216 T00900066 57006 FZRANO $
KBKV 
21nm N 
060853Z AUTO 00000KT 10SM CLR 06/04 A3017 RMK AO2 SLP217 T00560044 58007
TAF
KTPA 
11nm S 
060535Z 0606/0712 VRB03KT P6SM BKN250 FM061900 24007KT P6SM SCT250 FM062300 VRB04KT P6SM FEW250
KPIE 
14nm S 
060535Z 0606/0706 VRB04KT P6SM BKN250 FM061900 26007KT P6SM FEW250 FM070000 VRB04KT P6SM FEW250
KMCF 
18nm S 
060100Z 0601/0707 VRB06KT 9999 FEW200 QNH3013INS TX20/0620Z TN14/0611Z
NOTAMs
Click for the latest NOTAMs
NOTAMs are issued by the DoD/FAA and will open in a separate window not controlled by AirNav.

 

 
 

Would you like to see your business listed on this page?

 If your business provides an interesting product or service to pilots, flight crews, aircraft, or users of the Lake Keystone Seaplane Base, you should consider listing it here.  To start the listing process, click on the button below
 
Add a business
 

Other Pages about Lake Keystone Seaplane Base

Update a link
 
Copyright © AirNav, LLC. All rights reserved. Privacy Policy  Contact